MAS304 WMKL-WMKK
Flight info
| Callsign | MAS304 |
|---|---|
| Flight time | 0h 48m |
| Altitude | 31000 |
| Route | ISTEL DCT RINBA Y507 KAKAK KAKAK1J |
| Aircraft | B38M/M-SDE1FGHILORVWXY/HB1 |
Departure
| Time | 2026-04-16 05:36 |
|---|---|
| Airport | Langkawi International Airport (WMKL) |
Arrival
| Time | 2026-04-16 06:24 |
|---|---|
| Airport | Kuala Lumpur International Airport (WMKK) |
| Time | Latitude | Longitude | Altitude | Speed | Heading |
|---|---|---|---|---|---|
| 2026-04-16 05:27 | 6.34072 | 99.73249 | 37 ft | 0 kts | 304° |
| 2026-04-16 05:29 | 6.34072 | 99.73250 | 38 ft | 1 kts | 304° |
| 2026-04-16 05:29 | 6.34058 | 99.73270 | 38 ft | 4 kts | 303° |
| 2026-04-16 05:30 | 6.34044 | 99.73288 | 37 ft | 4 kts | 334° |
| 2026-04-16 05:30 | 6.34022 | 99.73287 | 37 ft | 4 kts | 29° |
| 2026-04-16 05:30 | 6.34009 | 99.73279 | 36 ft | 1 kts | 34° |
| 2026-04-16 05:30 | 6.34007 | 99.73278 | 36 ft | 0 kts | 34° |
| 2026-04-16 05:33 | 6.34008 | 99.73279 | 36 ft | 1 kts | 34° |
| 2026-04-16 05:33 | 6.34025 | 99.73290 | 37 ft | 6 kts | 34° |
| 2026-04-16 05:33 | 6.34079 | 99.73327 | 38 ft | 11 kts | 34° |
| 2026-04-16 05:33 | 6.34098 | 99.73393 | 38 ft | 9 kts | 107° |
| 2026-04-16 05:34 | 6.34062 | 99.73450 | 39 ft | 10 kts | 127° |
| 2026-04-16 05:34 | 6.34015 | 99.73509 | 39 ft | 12 kts | 123° |
| 2026-04-16 05:34 | 6.33958 | 99.73535 | 40 ft | 10 kts | 208° |
| 2026-04-16 05:34 | 6.33918 | 99.73510 | 39 ft | 1 kts | 214° |
| 2026-04-16 05:35 | 6.33880 | 99.73483 | 39 ft | 23 kts | 214° |
| 2026-04-16 05:35 | 6.33525 | 99.73241 | 37 ft | 98 kts | 214° |
| 2026-04-16 05:35 | 6.32785 | 99.72727 | 39 ft | 158 kts | 217° |
| 2026-04-16 05:35 | 6.31838 | 99.72048 | 468 ft | 176 kts | 213° |
| 2026-04-16 05:36 | 6.31001 | 99.71540 | 929 ft | 193 kts | 209° |
| 2026-04-16 05:36 | 6.30268 | 99.71130 | 1264 ft | 204 kts | 208° |
| 2026-04-16 05:36 | 6.28922 | 99.70552 | 1987 ft | 218 kts | 192° |
| 2026-04-16 05:37 | 6.27389 | 99.70647 | 2695 ft | 230 kts | 156° |
| 2026-04-16 05:37 | 6.26189 | 99.71729 | 3409 ft | 242 kts | 117° |
| 2026-04-16 05:37 | 6.25627 | 99.73359 | 4167 ft | 253 kts | 105° |
| 2026-04-16 05:37 | 6.25097 | 99.75079 | 4974 ft | 262 kts | 111° |
| 2026-04-16 05:38 | 6.24384 | 99.76798 | 5772 ft | 271 kts | 114° |
| 2026-04-16 05:38 | 6.23552 | 99.78507 | 6644 ft | 273 kts | 117° |
| 2026-04-16 05:38 | 6.22629 | 99.80202 | 7479 ft | 277 kts | 119° |
| 2026-04-16 05:38 | 6.21663 | 99.81837 | 8398 ft | 279 kts | 121° |
| 2026-04-16 05:39 | 6.20630 | 99.83536 | 9061 ft | 290 kts | 121° |
| 2026-04-16 05:39 | 6.19584 | 99.85255 | 9935 ft | 291 kts | 121° |
| 2026-04-16 05:39 | 6.18605 | 99.86860 | 10476 ft | 303 kts | 121° |
| 2026-04-16 05:39 | 6.17462 | 99.88727 | 10822 ft | 323 kts | 121° |
| 2026-04-16 05:40 | 6.16248 | 99.90709 | 11167 ft | 341 kts | 121° |
| 2026-04-16 05:40 | 6.14986 | 99.92778 | 11651 ft | 352 kts | 121° |
| 2026-04-16 05:40 | 6.13710 | 99.94875 | 12413 ft | 353 kts | 121° |
| 2026-04-16 05:40 | 6.12419 | 99.97001 | 13099 ft | 358 kts | 121° |
| 2026-04-16 05:41 | 6.11114 | 99.99145 | 13791 ft | 361 kts | 122° |
| 2026-04-16 05:41 | 6.09494 | 100.01081 | 14419 ft | 365 kts | 134° |
| 2026-04-16 05:41 | 6.07701 | 100.02910 | 15025 ft | 369 kts | 134° |
| 2026-04-16 05:41 | 6.05895 | 100.04761 | 15636 ft | 372 kts | 134° |
| 2026-04-16 05:42 | 6.04071 | 100.06627 | 16220 ft | 376 kts | 134° |
| 2026-04-16 05:42 | 6.02254 | 100.08484 | 16795 ft | 379 kts | 134° |
| 2026-04-16 05:42 | 6.00394 | 100.10384 | 17369 ft | 383 kts | 134° |
| 2026-04-16 05:42 | 5.98520 | 100.12299 | 17917 ft | 386 kts | 134° |
| 2026-04-16 05:43 | 5.96625 | 100.14235 | 18424 ft | 389 kts | 134° |
| 2026-04-16 05:43 | 5.94719 | 100.16183 | 18893 ft | 392 kts | 134° |
| 2026-04-16 05:43 | 5.92801 | 100.18141 | 19369 ft | 394 kts | 134° |
| 2026-04-16 05:43 | 5.90876 | 100.20106 | 19820 ft | 397 kts | 135° |
| 2026-04-16 05:44 | 5.88933 | 100.22091 | 20267 ft | 399 kts | 135° |
| 2026-04-16 05:44 | 5.86981 | 100.24083 | 20699 ft | 402 kts | 135° |
| 2026-04-16 05:44 | 5.85012 | 100.26094 | 21130 ft | 405 kts | 135° |
| 2026-04-16 05:44 | 5.83029 | 100.28118 | 21558 ft | 407 kts | 135° |
| 2026-04-16 05:45 | 5.81036 | 100.30153 | 21983 ft | 410 kts | 135° |
| 2026-04-16 05:45 | 5.79035 | 100.32195 | 22393 ft | 412 kts | 135° |
| 2026-04-16 05:45 | 5.77012 | 100.34259 | 22805 ft | 415 kts | 135° |
| 2026-04-16 05:45 | 5.74983 | 100.36330 | 23208 ft | 417 kts | 135° |
| 2026-04-16 05:46 | 5.72939 | 100.38415 | 23576 ft | 420 kts | 135° |
| 2026-04-16 05:46 | 5.70886 | 100.40511 | 23912 ft | 422 kts | 135° |
| 2026-04-16 05:46 | 5.68824 | 100.42614 | 24231 ft | 424 kts | 135° |
| 2026-04-16 05:46 | 5.66741 | 100.44738 | 24553 ft | 427 kts | 135° |
| 2026-04-16 05:47 | 5.64655 | 100.46866 | 24874 ft | 429 kts | 135° |
| 2026-04-16 05:47 | 5.62555 | 100.49008 | 25190 ft | 431 kts | 135° |
| 2026-04-16 05:47 | 5.60474 | 100.51129 | 25507 ft | 434 kts | 135° |
| 2026-04-16 05:47 | 5.58352 | 100.53293 | 25826 ft | 436 kts | 135° |
| 2026-04-16 05:48 | 5.56216 | 100.55470 | 26149 ft | 438 kts | 135° |
| 2026-04-16 05:48 | 5.54072 | 100.57656 | 26461 ft | 440 kts | 135° |
| 2026-04-16 05:48 | 5.51915 | 100.59854 | 26765 ft | 442 kts | 135° |
| 2026-04-16 05:48 | 5.49752 | 100.62059 | 27080 ft | 445 kts | 135° |
| 2026-04-16 05:49 | 5.47570 | 100.64282 | 27382 ft | 447 kts | 135° |
| 2026-04-16 05:49 | 5.45382 | 100.66511 | 27683 ft | 449 kts | 135° |
| 2026-04-16 05:49 | 5.43186 | 100.68749 | 27972 ft | 451 kts | 135° |
| 2026-04-16 05:49 | 5.40979 | 100.70996 | 28284 ft | 453 kts | 135° |
| 2026-04-16 05:50 | 5.38657 | 100.73144 | 28542 ft | 454 kts | 144° |
| 2026-04-16 05:50 | 5.35904 | 100.74687 | 28780 ft | 454 kts | 160° |
| 2026-04-16 05:50 | 5.32847 | 100.75502 | 28879 ft | 457 kts | 170° |
| 2026-04-16 05:51 | 5.26532 | 100.76622 | 28873 ft | 469 kts | 171° |
| 2026-04-16 05:51 | 5.20034 | 100.77679 | 28881 ft | 474 kts | 171° |
| 2026-04-16 05:52 | 5.13515 | 100.78712 | 28885 ft | 474 kts | 171° |
| 2026-04-16 05:52 | 5.07029 | 100.79737 | 28878 ft | 474 kts | 171° |
| 2026-04-16 05:53 | 5.00514 | 100.80767 | 28871 ft | 474 kts | 171° |
| 2026-04-16 05:53 | 4.93987 | 100.81799 | 28877 ft | 474 kts | 171° |
| 2026-04-16 05:54 | 4.87463 | 100.82829 | 28870 ft | 474 kts | 171° |
| 2026-04-16 05:54 | 4.80936 | 100.83861 | 28873 ft | 474 kts | 171° |
| 2026-04-16 05:55 | 4.74410 | 100.84891 | 28873 ft | 474 kts | 171° |
| 2026-04-16 05:55 | 4.67929 | 100.85914 | 28875 ft | 474 kts | 171° |
| 2026-04-16 05:56 | 4.61414 | 100.86943 | 28882 ft | 474 kts | 171° |
| 2026-04-16 05:56 | 4.54891 | 100.87973 | 28880 ft | 473 kts | 171° |
| 2026-04-16 05:57 | 4.48376 | 100.89001 | 28881 ft | 474 kts | 171° |
| 2026-04-16 05:57 | 4.45192 | 100.89843 | 28863 ft | 473 kts | 157° |
| 2026-04-16 05:57 | 4.42207 | 100.91257 | 28875 ft | 474 kts | 155° |
| 2026-04-16 05:58 | 4.36244 | 100.94108 | 28869 ft | 475 kts | 154° |
| 2026-04-16 05:58 | 4.30296 | 100.96999 | 28870 ft | 475 kts | 154° |
| 2026-04-16 05:59 | 4.24386 | 100.99877 | 28868 ft | 475 kts | 154° |
| 2026-04-16 05:59 | 4.18440 | 101.02773 | 28868 ft | 475 kts | 154° |
| 2026-04-16 06:00 | 4.12479 | 101.05675 | 28864 ft | 475 kts | 154° |
| 2026-04-16 06:00 | 4.06533 | 101.08569 | 28869 ft | 476 kts | 154° |
| 2026-04-16 06:01 | 4.00584 | 101.11465 | 28857 ft | 476 kts | 154° |
| 2026-04-16 06:01 | 3.95623 | 101.13878 | 28861 ft | 476 kts | 154° |
| 2026-04-16 06:02 | 3.86683 | 101.18228 | 28861 ft | 476 kts | 154° |
| 2026-04-16 06:02 | 3.83720 | 101.19670 | 28489 ft | 471 kts | 154° |
| 2026-04-16 06:02 | 3.80766 | 101.21106 | 27613 ft | 472 kts | 154° |
| 2026-04-16 06:03 | 3.77817 | 101.22545 | 26868 ft | 471 kts | 153° |
| 2026-04-16 06:03 | 3.75070 | 101.24297 | 26355 ft | 464 kts | 145° |
| 2026-04-16 06:03 | 3.72434 | 101.26143 | 26073 ft | 464 kts | 146° |
| 2026-04-16 06:03 | 3.69795 | 101.27989 | 25659 ft | 462 kts | 146° |
| 2026-04-16 06:04 | 3.67162 | 101.29837 | 25233 ft | 459 kts | 146° |
| 2026-04-16 06:04 | 3.64557 | 101.31666 | 24794 ft | 456 kts | 146° |
| 2026-04-16 06:04 | 3.61968 | 101.33485 | 24371 ft | 453 kts | 146° |
| 2026-04-16 06:04 | 3.59399 | 101.35290 | 23954 ft | 450 kts | 146° |
| 2026-04-16 06:05 | 3.56872 | 101.37065 | 23538 ft | 447 kts | 146° |
| 2026-04-16 06:05 | 3.54335 | 101.38846 | 23068 ft | 444 kts | 146° |
| 2026-04-16 06:05 | 3.51815 | 101.40616 | 22621 ft | 441 kts | 146° |
| 2026-04-16 06:05 | 3.49309 | 101.42376 | 22204 ft | 439 kts | 146° |
| 2026-04-16 06:06 | 3.46785 | 101.44148 | 21792 ft | 436 kts | 146° |
| 2026-04-16 06:06 | 3.44343 | 101.45863 | 21393 ft | 433 kts | 146° |
| 2026-04-16 06:06 | 3.41885 | 101.47589 | 20998 ft | 431 kts | 146° |
| 2026-04-16 06:06 | 3.39438 | 101.49307 | 20593 ft | 428 kts | 146° |
| 2026-04-16 06:07 | 3.36999 | 101.51019 | 20193 ft | 426 kts | 145° |
| 2026-04-16 06:07 | 3.34581 | 101.52716 | 19797 ft | 424 kts | 145° |
| 2026-04-16 06:07 | 3.32171 | 101.54408 | 19403 ft | 422 kts | 145° |
| 2026-04-16 06:07 | 3.29779 | 101.56086 | 19014 ft | 420 kts | 145° |
| 2026-04-16 06:08 | 3.27387 | 101.57765 | 18620 ft | 418 kts | 145° |
| 2026-04-16 06:08 | 3.25011 | 101.59433 | 18229 ft | 416 kts | 145° |
| 2026-04-16 06:08 | 3.22643 | 101.61094 | 17793 ft | 414 kts | 145° |
| 2026-04-16 06:08 | 3.20293 | 101.62743 | 17389 ft | 411 kts | 144° |
| 2026-04-16 06:09 | 3.17960 | 101.64381 | 17004 ft | 408 kts | 144° |
| 2026-04-16 06:09 | 3.15673 | 101.65985 | 16626 ft | 405 kts | 144° |
| 2026-04-16 06:09 | 3.13371 | 101.67600 | 16242 ft | 403 kts | 144° |
| 2026-04-16 06:09 | 3.11083 | 101.69205 | 15867 ft | 400 kts | 144° |
| 2026-04-16 06:10 | 3.08811 | 101.70799 | 15486 ft | 397 kts | 144° |
| 2026-04-16 06:10 | 3.08050 | 101.71333 | 15372 ft | 397 kts | 144° |
| 2026-04-16 06:10 | 3.07306 | 101.71855 | 15244 ft | 396 kts | 144° |
| 2026-04-16 06:10 | 3.05353 | 101.73225 | 14922 ft | 393 kts | 144° |
| 2026-04-16 06:11 | 3.03122 | 101.74790 | 14556 ft | 390 kts | 144° |
| 2026-04-16 06:11 | 3.00926 | 101.76330 | 14198 ft | 385 kts | 144° |
| 2026-04-16 06:11 | 2.98727 | 101.77872 | 13822 ft | 380 kts | 144° |
| 2026-04-16 06:11 | 2.96573 | 101.79383 | 13428 ft | 376 kts | 144° |
| 2026-04-16 06:12 | 2.94459 | 101.80865 | 12944 ft | 374 kts | 144° |
| 2026-04-16 06:12 | 2.92334 | 101.82355 | 12452 ft | 373 kts | 144° |
| 2026-04-16 06:12 | 2.90209 | 101.83845 | 11968 ft | 372 kts | 144° |
| 2026-04-16 06:12 | 2.88097 | 101.85326 | 11492 ft | 370 kts | 144° |
| 2026-04-16 06:13 | 2.85959 | 101.86759 | 11017 ft | 369 kts | 152° |
| 2026-04-16 06:13 | 2.83547 | 101.87608 | 10619 ft | 366 kts | 163° |
| 2026-04-16 06:13 | 2.81148 | 101.88323 | 10529 ft | 353 kts | 162° |
| 2026-04-16 06:13 | 2.78836 | 101.89026 | 10443 ft | 340 kts | 162° |
| 2026-04-16 06:14 | 2.76614 | 101.89703 | 10370 ft | 328 kts | 162° |
| 2026-04-16 06:14 | 2.74466 | 101.90358 | 10310 ft | 316 kts | 162° |
| 2026-04-16 06:14 | 2.72404 | 101.90988 | 10249 ft | 304 kts | 162° |
| 2026-04-16 06:14 | 2.70414 | 101.91595 | 10189 ft | 293 kts | 162° |
| 2026-04-16 06:15 | 2.68486 | 101.92184 | 10122 ft | 287 kts | 162° |
| 2026-04-16 06:15 | 2.66611 | 101.92756 | 10010 ft | 286 kts | 162° |
| 2026-04-16 06:15 | 2.64700 | 101.93340 | 9730 ft | 287 kts | 162° |
| 2026-04-16 06:15 | 2.62791 | 101.93923 | 9402 ft | 287 kts | 163° |
| 2026-04-16 06:16 | 2.60886 | 101.94504 | 9047 ft | 287 kts | 163° |
| 2026-04-16 06:16 | 2.58975 | 101.95087 | 8705 ft | 287 kts | 162° |
| 2026-04-16 06:16 | 2.57066 | 101.95670 | 8393 ft | 286 kts | 162° |
| 2026-04-16 06:16 | 2.55165 | 101.96225 | 8096 ft | 284 kts | 168° |
| 2026-04-16 06:17 | 2.53221 | 101.96127 | 7786 ft | 282 kts | 199° |
| 2026-04-16 06:17 | 2.51611 | 101.95051 | 7503 ft | 281 kts | 229° |
| 2026-04-16 06:17 | 2.50515 | 101.93450 | 7226 ft | 279 kts | 236° |
| 2026-04-16 06:17 | 2.49438 | 101.91841 | 6945 ft | 278 kts | 236° |
| 2026-04-16 06:18 | 2.48391 | 101.90225 | 6661 ft | 276 kts | 243° |
| 2026-04-16 06:18 | 2.48021 | 101.88370 | 6350 ft | 276 kts | 278° |
| 2026-04-16 06:18 | 2.48779 | 101.86706 | 6130 ft | 260 kts | 316° |
| 2026-04-16 06:18 | 2.50239 | 101.85776 | 6039 ft | 242 kts | 334° |
| 2026-04-16 06:19 | 2.51697 | 101.84983 | 5799 ft | 235 kts | 329° |
| 2026-04-16 06:19 | 2.53055 | 101.84118 | 5359 ft | 236 kts | 327° |
| 2026-04-16 06:19 | 2.54443 | 101.83183 | 4650 ft | 247 kts | 326° |
| 2026-04-16 06:19 | 2.55911 | 101.82191 | 3904 ft | 257 kts | 327° |
| 2026-04-16 06:20 | 2.57353 | 101.81219 | 3506 ft | 241 kts | 327° |
| 2026-04-16 06:20 | 2.58691 | 101.80318 | 3152 ft | 222 kts | 326° |
| 2026-04-16 06:20 | 2.59926 | 101.79486 | 2839 ft | 206 kts | 327° |
| 2026-04-16 06:20 | 2.61049 | 101.78728 | 2544 ft | 185 kts | 326° |
| 2026-04-16 06:21 | 2.62081 | 101.78030 | 2256 ft | 176 kts | 326° |
| 2026-04-16 06:21 | 2.63100 | 101.77347 | 1980 ft | 176 kts | 326° |
| 2026-04-16 06:21 | 2.64112 | 101.76666 | 1716 ft | 175 kts | 325° |
| 2026-04-16 06:21 | 2.65099 | 101.75997 | 1504 ft | 168 kts | 325° |
| 2026-04-16 06:22 | 2.66058 | 101.75354 | 1281 ft | 164 kts | 324° |
| 2026-04-16 06:22 | 2.66998 | 101.74723 | 1041 ft | 161 kts | 326° |
| 2026-04-16 06:22 | 2.67908 | 101.74105 | 864 ft | 160 kts | 323° |
| 2026-04-16 06:22 | 2.68844 | 101.73474 | 682 ft | 165 kts | 326° |
| 2026-04-16 06:23 | 2.69808 | 101.72831 | 467 ft | 167 kts | 326° |
| 2026-04-16 06:23 | 2.70757 | 101.72177 | 255 ft | 163 kts | 326° |
| 2026-04-16 06:23 | 2.71688 | 101.71561 | 65 ft | 156 kts | 325° |
| 2026-04-16 06:23 | 2.72498 | 101.71020 | 57 ft | 110 kts | 326° |
| 2026-04-16 06:24 | 2.72938 | 101.70737 | 57 ft | 38 kts | 338° |
| 2026-04-16 06:24 | 2.73093 | 101.70697 | 58 ft | 12 kts | 356° |
| 2026-04-16 06:24 | 2.73186 | 101.70691 | 57 ft | 15 kts | 356° |
| 2026-04-16 06:24 | 2.73300 | 101.70685 | 60 ft | 20 kts | 356° |
| 2026-04-16 06:25 | 2.73450 | 101.70614 | 58 ft | 27 kts | 325° |
| 2026-04-16 06:25 | 2.73612 | 101.70506 | 60 ft | 29 kts | 324° |
| 2026-04-16 06:25 | 2.73775 | 101.70396 | 57 ft | 26 kts | 325° |
| 2026-04-16 06:25 | 2.73930 | 101.70293 | 59 ft | 28 kts | 324° |
| 2026-04-16 06:26 | 2.74092 | 101.70182 | 54 ft | 28 kts | 325° |
| 2026-04-16 06:26 | 2.74250 | 101.70078 | 57 ft | 27 kts | 326° |
| 2026-04-16 06:26 | 2.74407 | 101.69971 | 63 ft | 20 kts | 326° |
| 2026-04-16 06:26 | 2.74506 | 101.69965 | 61 ft | 10 kts | 43° |
| 2026-04-16 06:27 | 2.74540 | 101.70024 | 63 ft | 10 kts | 62° |
| 2026-04-16 06:27 | 2.74576 | 101.70090 | 62 ft | 12 kts | 60° |
| 2026-04-16 06:27 | 2.74622 | 101.70161 | 58 ft | 12 kts | 44° |
| 2026-04-16 06:27 | 2.74687 | 101.70166 | 72 ft | 8 kts | 330° |
| 2026-04-16 06:28 | 2.74752 | 101.70122 | 69 ft | 14 kts | 326° |
| 2026-04-16 06:28 | 2.74809 | 101.70117 | 75 ft | 5 kts | 40° |
| 2026-04-16 06:28 | 2.74831 | 101.70149 | 72 ft | 8 kts | 56° |
| 2026-04-16 06:28 | 2.74871 | 101.70208 | 75 ft | 12 kts | 56° |
| 2026-04-16 06:29 | 2.74922 | 101.70284 | 68 ft | 14 kts | 57° |
| 2026-04-16 06:29 | 2.74976 | 101.70367 | 72 ft | 14 kts | 56° |
| 2026-04-16 06:29 | 2.75029 | 101.70446 | 72 ft | 12 kts | 56° |
| 2026-04-16 06:29 | 2.75069 | 101.70473 | 72 ft | 4 kts | 348° |
| 2026-04-16 06:30 | 2.75082 | 101.70463 | 72 ft | 3 kts | 321° |
| 2026-04-16 06:30 | 2.75103 | 101.70448 | 66 ft | 0 kts | 324° |
| 2026-04-16 06:30 | 2.75111 | 101.70443 | 69 ft | 2 kts | 325° |
| 2026-04-16 06:30 | 2.75117 | 101.70439 | 71 ft | 0 kts | 326° |
| 2026-04-16 06:34 | 2.75116 | 101.70439 | 71 ft | 0 kts | 326° |